Time;durP1;ratioP1;P1;durP2;ratioP2;P2;SDS_P1;SDS_P2;PMS_P1;PMS_P2;Temp;Humidity;BMP_temperature;BMP_pressure;BME280_temperature;BME280_humidity;BME280_pressure;Samples;Min_cycle;Max_cycle;Signal;HPM_P1;HPM_P2
2021/10/26 00:02:00;;;;;;;9.20;8.17;;;8.30;99.90;;;;;;5009219;28;20299;-73
2021/10/26 00:04:27;;;;;;;8.73;7.90;;;8.20;99.90;;;;;;5009594;28;20490;-73
2021/10/26 00:06:53;;;;;;;9.47;8.57;;;8.20;99.90;;;;;;5009386;28;20304;-73
2021/10/26 00:09:22;;;;;;;8.47;7.77;;;8.20;99.90;;;;;;5008985;28;21048;-73
2021/10/26 00:11:49;;;;;;;9.73;7.80;;;8.20;99.90;;;;;;5009499;28;20217;-73
2021/10/26 00:14:16;;;;;;;8.77;7.87;;;8.30;99.90;;;;;;5008746;28;20707;-73
2021/10/26 00:16:43;;;;;;;9.17;7.93;;;8.40;99.90;;;;;;5009074;28;20225;-73
2021/10/26 00:19:10;;;;;;;9.37;8.30;;;8.40;99.90;;;;;;5009175;28;20364;-73
2021/10/26 00:21:36;;;;;;;9.67;7.43;;;8.40;99.90;;;;;;5009489;28;20201;-73
2021/10/26 00:24:03;;;;;;;8.63;7.73;;;8.50;99.90;;;;;;5009233;28;20209;-74
2021/10/26 00:26:31;;;;;;;8.77;7.87;;;8.50;99.90;;;;;;5009093;28;20229;-73
2021/10/26 00:28:58;;;;;;;9.90;8.83;;;8.50;99.90;;;;;;5009080;28;20229;-73
2021/10/26 00:31:25;;;;;;;11.07;8.33;;;8.50;99.90;;;;;;5009005;28;20213;-73
2021/10/26 00:33:52;;;;;;;9.27;8.27;;;8.60;99.90;;;;;;5008728;28;20625;-73
2021/10/26 00:36:19;;;;;;;10.67;8.17;;;8.60;99.90;;;;;;5008985;28;20233;-73
2021/10/26 00:38:45;;;;;;;9.10;7.83;;;8.70;99.90;;;;;;5008847;28;20205;-73
2021/10/26 00:41:12;;;;;;;10.17;7.93;;;8.70;99.90;;;;;;5008862;28;20244;-73
2021/10/26 00:43:41;;;;;;;9.30;8.27;;;8.70;99.90;;;;;;5009322;28;20264;-77
2021/10/26 00:46:07;;;;;;;9.33;8.33;;;8.70;99.90;;;;;;5009352;28;20228;-77
2021/10/26 00:48:34;;;;;;;9.20;8.20;;;8.70;99.90;;;;;;5009151;28;20657;-77
2021/10/26 00:51:01;;;;;;;15.33;9.10;;;8.70;99.90;;;;;;5009366;28;20220;-77
2021/10/26 00:53:28;;;;;;;9.70;8.70;;;8.70;99.90;;;;;;5016148;28;20259;-77
2021/10/26 00:55:54;;;;;;;8.97;8.17;;;8.70;99.90;;;;;;5012993;28;20209;-77
2021/10/26 00:58:21;;;;;;;9.40;8.50;;;8.70;99.90;;;;;;5011911;28;20674;-77
2021/10/26 01:00:49;;;;;;;9.70;8.03;;;8.70;99.90;;;;;;5013182;28;20233;-77
2021/10/26 01:03:16;;;;;;;10.20;8.07;;;8.70;99.90;;;;;;5014815;28;20209;-76
2021/10/26 01:05:42;;;;;;;11.50;8.33;;;8.70;99.90;;;;;;5011580;28;20214;-76
2021/10/26 01:08:09;;;;;;;10.10;8.07;;;8.70;99.90;;;;;;5012420;28;20234;-77
2021/10/26 01:10:36;;;;;;;9.03;8.20;;;8.80;99.90;;;;;;5012670;28;20623;-77
2021/10/26 01:13:04;;;;;;;8.90;8.07;;;8.80;99.90;;;;;;5009947;28;20251;-77
2021/10/26 01:15:32;;;;;;;8.83;7.93;;;8.70;99.90;;;;;;5028738;28;20259;-76
2021/10/26 01:18:00;;;;;;;9.77;8.87;;;8.70;99.90;;;;;;5029506;28;20271;-72
2021/10/26 01:20:28;;;;;;;8.93;8.10;;;8.70;99.90;;;;;;5028092;28;20205;-72
2021/10/26 01:22:54;;;;;;;8.90;8.03;;;8.70;99.90;;;;;;5028301;28;20212;-72
2021/10/26 01:25:21;;;;;;;8.63;7.93;;;8.70;99.90;;;;;;5027985;28;20221;-72
2021/10/26 01:27:53;;;;;;;9.23;7.93;;;8.70;99.90;;;;;;5027995;28;20233;-72
2021/10/26 01:30:24;;;;;;;8.67;7.77;;;8.70;99.90;;;;;;5028151;28;20215;-72
2021/10/26 01:32:51;;;;;;;9.97;8.33;;;8.70;99.90;;;;;;5027697;28;20205;-72
2021/10/26 01:35:18;;;;;;;8.40;7.57;;;8.80;99.90;;;;;;5027988;28;20743;-73
2021/10/26 01:37:45;;;;;;;9.27;7.77;;;8.80;99.90;;;;;;5028237;28;20209;-73
2021/10/26 01:40:13;;;;;;;8.87;7.30;;;8.80;99.90;;;;;;5028156;28;20213;-72
2021/10/26 01:42:39;;;;;;;7.97;7.07;;;8.70;99.90;;;;;;5027823;28;20208;-71
2021/10/26 01:45:07;;;;;;;8.17;7.37;;;8.70;99.90;;;;;;5027670;28;20617;-71
2021/10/26 01:47:34;;;;;;;8.53;7.63;;;8.70;99.90;;;;;;5028002;28;20304;-74
2021/10/26 01:50:01;;;;;;;9.17;7.50;;;8.70;99.90;;;;;;5028247;28;20255;-74
2021/10/26 01:52:28;;;;;;;8.03;7.33;;;8.70;99.90;;;;;;5028065;28;20228;-74
2021/10/26 01:54:56;;;;;;;8.47;7.57;;;8.70;99.90;;;;;;5028124;28;20266;-74
2021/10/26 01:57:23;;;;;;;9.47;7.57;;;8.70;99.90;;;;;;5027613;28;20205;-74
2021/10/26 01:59:50;;;;;;;7.93;7.30;;;8.70;99.90;;;;;;5027757;28;20623;-74
2021/10/26 02:02:17;;;;;;;7.73;7.03;;;8.70;99.90;;;;;;5027255;28;20681;-74
2021/10/26 02:04:43;;;;;;;8.03;7.00;;;8.60;99.90;;;;;;5027730;28;20208;-74
2021/10/26 02:07:11;;;;;;;8.10;7.30;;;8.60;99.90;;;;;;5027341;28;20209;-73
2021/10/26 02:09:38;;;;;;;8.40;7.37;;;8.60;99.90;;;;;;5027613;28;20278;-73
2021/10/26 02:12:06;;;;;;;7.90;7.10;;;8.60;99.90;;;;;;5030909;28;20341;-73
2021/10/26 02:14:34;;;;;;;9.47;7.57;;;8.60;99.90;;;;;;5031155;28;20259;-73
2021/10/26 02:17:01;;;;;;;7.77;7.07;;;8.60;99.90;;;;;;5030785;28;20275;-73
2021/10/26 02:19:28;;;;;;;8.53;7.63;;;8.60;99.90;;;;;;5030920;28;20223;-73
2021/10/26 02:21:55;;;;;;;10.50;7.20;;;8.60;99.90;;;;;;5031335;28;20259;-74
2021/10/26 02:24:21;;;;;;;8.80;7.90;;;8.60;99.90;;;;;;5031113;28;20259;-74
2021/10/26 02:26:48;;;;;;;8.07;7.17;;;8.60;99.90;;;;;;5031027;28;20214;-75
2021/10/26 02:29:17;;;;;;;8.30;7.60;;;8.60;99.90;;;;;;5030815;28;20286;-75
2021/10/26 02:31:43;;;;;;;8.33;7.53;;;8.60;99.90;;;;;;5031081;28;20213;-82
2021/10/26 02:34:10;;;;;;;7.80;7.10;;;8.60;99.90;;;;;;5030593;28;20662;-74
2021/10/26 02:36:37;;;;;;;7.77;7.07;;;8.60;99.90;;;;;;5030929;28;20212;-74
2021/10/26 02:39:05;;;;;;;8.80;7.97;;;8.60;99.90;;;;;;5026518;28;20498;-74
2021/10/26 02:41:32;;;;;;;7.90;7.17;;;8.60;99.90;;;;;;5026789;28;20742;-74
2021/10/26 02:43:59;;;;;;;8.87;7.43;;;8.50;99.90;;;;;;5026952;28;20212;-74
2021/10/26 02:46:27;;;;;;;9.07;7.03;;;8.50;99.90;;;;;;5026843;28;20594;-75
2021/10/26 02:48:54;;;;;;;7.90;7.10;;;8.50;99.90;;;;;;5027168;28;20264;-75
2021/10/26 02:51:20;;;;;;;7.67;7.00;;;8.50;99.90;;;;;;5026595;28;20225;-75
2021/10/26 02:53:47;;;;;;;8.13;7.33;;;8.50;99.90;;;;;;5026720;28;20209;-75
2021/10/26 02:56:14;;;;;;;8.37;7.57;;;8.50;99.90;;;;;;5026456;28;20601;-74
2021/10/26 02:58:41;;;;;;;8.63;6.90;;;8.50;99.90;;;;;;5026870;28;20250;-74
2021/10/26 03:01:09;;;;;;;8.00;7.30;;;8.50;99.90;;;;;;5026239;28;20236;-75
2021/10/26 03:03:38;;;;;;;7.13;6.60;;;8.50;99.90;;;;;;5026715;28;20205;-76
2021/10/26 03:06:05;;;;;;;7.73;7.13;;;8.50;99.90;;;;;;5026872;28;20247;-74
2021/10/26 03:08:32;;;;;;;8.13;7.33;;;8.50;99.90;;;;;;5026537;28;20399;-74
2021/10/26 03:10:59;;;;;;;8.17;7.27;;;8.30;99.90;;;;;;5021250;28;20240;-74
2021/10/26 03:13:25;;;;;;;7.80;7.20;;;8.30;99.90;;;;;;5023981;28;20264;-73
2021/10/26 03:15:52;;;;;;;8.10;7.30;;;8.20;99.90;;;;;;5019880;28;20819;-74
2021/10/26 03:18:19;;;;;;;7.97;7.17;;;8.20;99.90;;;;;;5009703;28;20375;-74
2021/10/26 03:20:46;;;;;;;8.10;7.40;;;8.30;99.90;;;;;;5008880;28;20213;-74
2021/10/26 03:23:13;;;;;;;7.80;7.20;;;8.30;99.90;;;;;;5009312;28;20209;-74
2021/10/26 03:25:40;;;;;;;7.40;6.87;;;8.40;99.90;;;;;;5010320;28;20209;-74
2021/10/26 03:28:08;;;;;;;6.93;6.23;;;8.40;99.90;;;;;;5010063;28;20268;-74
2021/10/26 03:30:35;;;;;;;7.80;7.03;;;8.40;99.90;;;;;;5009984;28;20209;-74
2021/10/26 03:33:02;;;;;;;7.40;6.70;;;8.40;99.90;;;;;;5010004;28;20209;-74
2021/10/26 03:35:28;;;;;;;7.27;6.77;;;8.50;99.90;;;;;;5009930;28;20316;-74
2021/10/26 03:37:56;;;;;;;8.20;7.33;;;8.50;99.90;;;;;;5010226;28;20264;-74
2021/10/26 03:40:23;;;;;;;7.53;6.53;;;8.60;99.90;;;;;;5009758;28;20237;-74
2021/10/26 03:42:50;;;;;;;8.27;7.47;;;8.60;99.90;;;;;;5009909;28;20627;-74
2021/10/26 03:45:16;;;;;;;8.03;7.33;;;8.60;99.90;;;;;;5009502;28;20641;-74
2021/10/26 03:47:45;;;;;;;7.10;6.53;;;8.60;99.90;;;;;;5009710;28;20206;-74
2021/10/26 03:50:13;;;;;;;8.33;6.97;;;8.60;99.90;;;;;;5009447;28;20239;-74
2021/10/26 03:52:39;;;;;;;7.13;6.63;;;8.60;99.90;;;;;;5009670;28;20212;-74
2021/10/26 03:55:09;;;;;;;8.00;7.20;;;8.60;99.90;;;;;;5009710;28;20469;-74
2021/10/26 03:57:36;;;;;;;8.63;7.40;;;8.60;99.90;;;;;;5009752;28;20236;-74
2021/10/26 04:00:04;;;;;;;8.33;6.70;;;8.70;99.90;;;;;;5009326;28;20213;-75
2021/10/26 04:02:32;;;;;;;8.73;7.33;;;8.70;99.90;;;;;;5009347;28;20200;-74
2021/10/26 04:05:02;;;;;;;8.10;7.40;;;8.70;99.90;;;;;;5009408;28;20296;-74
2021/10/26 04:07:29;;;;;;;8.83;7.67;;;8.70;99.90;;;;;;5009478;28;20279;-74
2021/10/26 04:09:59;;;;;;;8.47;6.90;;;8.70;99.90;;;;;;5009459;28;20233;-74
2021/10/26 04:12:28;;;;;;;7.67;6.97;;;8.70;99.90;;;;;;5009142;28;20798;-74
2021/10/26 04:14:56;;;;;;;7.90;7.20;;;8.70;99.90;;;;;;5009300;28;20202;-74
2021/10/26 04:17:23;;;;;;;7.83;7.07;;;8.70;99.90;;;;;;5009091;28;20217;-74
2021/10/26 04:19:50;;;;;;;8.27;7.20;;;8.60;99.90;;;;;;5009318;28;20619;-74
2021/10/26 04:22:20;;;;;;;8.40;7.60;;;8.60;99.90;;;;;;5009112;28;20210;-74
2021/10/26 04:24:47;;;;;;;8.67;7.83;;;8.70;99.90;;;;;;5009066;28;20210;-74
2021/10/26 04:27:16;;;;;;;9.43;7.50;;;8.70;99.90;;;;;;5008603;28;20617;-74
2021/10/26 04:29:45;;;;;;;8.13;7.40;;;8.70;99.90;;;;;;5008774;28;20731;-74
2021/10/26 04:32:12;;;;;;;7.93;7.20;;;8.70;99.90;;;;;;5008721;28;20292;-74
2021/10/26 04:34:39;;;;;;;7.90;7.30;;;8.70;99.90;;;;;;5008329;28;20252;-74
2021/10/26 04:37:08;;;;;;;8.47;7.63;;;8.70;99.90;;;;;;5009018;28;20264;-74
2021/10/26 04:39:37;;;;;;;8.37;7.47;;;8.70;99.90;;;;;;5008799;28;20201;-74
2021/10/26 04:42:08;;;;;;;8.47;7.50;;;8.70;99.90;;;;;;5008774;28;20287;-74
2021/10/26 04:44:35;;;;;;;9.47;7.93;;;8.70;99.90;;;;;;5008828;28;20203;-75
2021/10/26 04:47:03;;;;;;;9.70;7.40;;;8.70;99.90;;;;;;5008770;28;20205;-74
2021/10/26 04:49:30;;;;;;;8.43;7.73;;;8.70;99.90;;;;;;5008536;28;20233;-74
2021/10/26 04:51:56;;;;;;;8.40;7.63;;;8.70;99.90;;;;;;5008776;28;20229;-74
2021/10/26 04:54:23;;;;;;;8.60;7.30;;;8.70;99.90;;;;;;5008453;28;20745;-74
2021/10/26 04:56:50;;;;;;;7.93;7.23;;;8.80;99.90;;;;;;5008428;28;20648;-74
2021/10/26 04:59:16;;;;;;;8.03;7.03;;;8.80;99.90;;;;;;5008476;28;20263;-74
2021/10/26 05:01:43;;;;;;;7.27;6.57;;;8.70;99.90;;;;;;5008265;28;20287;-75
2021/10/26 05:04:11;;;;;;;7.90;7.20;;;8.80;99.90;;;;;;5008553;28;20259;-74
2021/10/26 05:06:38;;;;;;;7.97;7.27;;;8.80;99.90;;;;;;5008536;28;20221;-74
2021/10/26 05:09:04;;;;;;;8.37;7.63;;;8.80;99.90;;;;;;5008456;28;20279;-74
2021/10/26 05:11:31;;;;;;;7.90;7.10;;;8.80;99.90;;;;;;5008485;28;20209;-74
2021/10/26 05:13:58;;;;;;;8.20;7.40;;;8.70;99.90;;;;;;5008670;28;20388;-74
2021/10/26 05:16:26;;;;;;;9.27;8.37;;;8.70;99.90;;;;;;5018204;28;20309;-74
2021/10/26 05:18:56;;;;;;;7.90;7.20;;;8.70;99.90;;;;;;5028013;28;20633;-74
2021/10/26 05:21:24;;;;;;;8.50;7.47;;;8.70;99.90;;;;;;5028027;28;20212;-75
2021/10/26 05:23:51;;;;;;;8.50;7.70;;;8.70;99.90;;;;;;5028322;28;20220;-73
2021/10/26 05:26:19;;;;;;;8.23;6.97;;;8.70;99.90;;;;;;5028179;28;20221;-74
2021/10/26 05:28:47;;;;;;;7.43;6.73;;;8.70;99.90;;;;;;5028174;28;20545;-73
2021/10/26 05:31:13;;;;;;;8.43;6.87;;;8.70;99.90;;;;;;5027927;28;20213;-74
2021/10/26 05:33:40;;;;;;;7.10;6.40;;;8.70;99.90;;;;;;5028151;28;20244;-74
2021/10/26 05:36:08;;;;;;;7.57;6.87;;;8.70;99.90;;;;;;5027817;28;20211;-74
2021/10/26 05:38:36;;;;;;;8.47;7.57;;;8.70;99.90;;;;;;5028028;28;20605;-74
2021/10/26 05:41:04;;;;;;;7.70;7.00;;;8.70;99.90;;;;;;5028069;28;20232;-74
2021/10/26 05:43:30;;;;;;;9.00;8.20;;;8.60;99.90;;;;;;5027634;28;20236;-74
2021/10/26 05:45:57;;;;;;;8.63;7.43;;;8.60;99.90;;;;;;5029429;28;20216;-74
2021/10/26 05:48:24;;;;;;;7.43;6.73;;;8.60;99.90;;;;;;5031540;28;20204;-74
2021/10/26 05:50:50;;;;;;;7.10;6.50;;;8.70;99.90;;;;;;5031681;28;20236;-74
2021/10/26 05:53:17;;;;;;;7.37;6.73;;;8.70;99.90;;;;;;5031673;28;20240;-74
2021/10/26 05:55:45;;;;;;;7.10;6.50;;;8.70;99.90;;;;;;5031663;28;20205;-74
2021/10/26 05:58:13;;;;;;;6.80;6.20;;;8.80;99.90;;;;;;5031127;28;20686;-74
2021/10/26 06:00:40;;;;;;;7.10;6.40;;;8.80;99.90;;;;;;5031161;28;20236;-74
2021/10/26 06:03:07;;;;;;;7.53;6.70;;;8.80;99.90;;;;;;5031413;28;20660;-74
2021/10/26 06:05:33;;;;;;;8.17;7.47;;;8.80;99.90;;;;;;5031245;28;20959;-74
2021/10/26 06:08:00;;;;;;;9.83;8.93;;;8.70;99.90;;;;;;5031281;28;20251;-74
2021/10/26 06:10:28;;;;;;;8.33;7.63;;;8.70;99.90;;;;;;5031089;28;20232;-74
2021/10/26 06:12:58;;;;;;;7.80;7.03;;;8.70;99.90;;;;;;5031031;28;20275;-74
2021/10/26 06:15:25;;;;;;;7.60;6.90;;;8.70;99.90;;;;;;5031039;28;20235;-74
2021/10/26 06:17:52;;;;;;;8.53;6.73;;;8.80;99.90;;;;;;5031169;28;20693;-74
2021/10/26 06:20:19;;;;;;;8.27;6.93;;;8.80;99.90;;;;;;5030885;28;20212;-74
2021/10/26 06:22:45;;;;;;;7.27;6.60;;;8.90;99.90;;;;;;5031110;28;20262;-74
2021/10/26 06:25:12;;;;;;;6.90;6.30;;;8.90;99.90;;;;;;5030669;28;20241;-74
2021/10/26 06:27:39;;;;;;;6.37;5.87;;;8.90;99.90;;;;;;5030956;28;20259;-74
2021/10/26 06:30:07;;;;;;;8.03;6.80;;;8.90;99.90;;;;;;5030671;28;20228;-74
2021/10/26 06:32:34;;;;;;;7.40;6.70;;;8.90;99.90;;;;;;5030756;28;20213;-74
2021/10/26 06:35:01;;;;;;;7.20;6.50;;;9.00;99.90;;;;;;5030601;28;20225;-74
2021/10/26 06:37:28;;;;;;;7.50;6.90;;;9.00;99.90;;;;;;5030662;28;20248;-74
2021/10/26 06:39:56;;;;;;;7.73;7.03;;;9.00;99.90;;;;;;5030805;28;20300;-74
2021/10/26 06:42:26;;;;;;;8.70;7.87;;;9.00;99.90;;;;;;5030546;28;20616;-74
2021/10/26 06:44:52;;;;;;;9.43;8.30;;;9.00;99.90;;;;;;5030622;28;20555;-74
2021/10/26 06:47:20;;;;;;;9.90;8.27;;;9.00;99.90;;;;;;5030550;28;20241;-76
2021/10/26 06:49:47;;;;;;;7.77;7.07;;;9.00;99.90;;;;;;5030664;28;20236;-74
2021/10/26 06:52:15;;;;;;;7.20;6.70;;;9.00;99.90;;;;;;5030784;28;20215;-74
2021/10/26 06:54:42;;;;;;;8.73;6.53;;;9.10;99.90;;;;;;5030309;28;20824;-74
2021/10/26 06:57:09;;;;;;;7.00;6.40;;;9.10;99.90;;;;;;5029869;28;20205;-74
2021/10/26 06:59:36;;;;;;;6.50;5.90;;;9.20;99.90;;;;;;5030277;28;20213;-74
2021/10/26 07:02:03;;;;;;;6.97;6.10;;;9.30;99.90;;;;;;5030215;28;20236;-74
2021/10/26 07:04:33;;;;;;;8.17;5.60;;;9.30;99.90;;;;;;5029871;28;20580;-74
2021/10/26 07:07:00;;;;;;;6.37;5.77;;;9.30;99.90;;;;;;5030441;28;20201;-75
2021/10/26 07:09:27;;;;;;;6.93;6.27;;;9.30;99.90;;;;;;5029853;28;20730;-74
2021/10/26 07:11:54;;;;;;;6.17;5.57;;;9.30;99.90;;;;;;5030118;28;20229;-74
2021/10/26 07:14:20;;;;;;;6.77;6.17;;;9.30;99.90;;;;;;5029943;28;20298;-74
2021/10/26 07:16:47;;;;;;;6.97;6.27;;;9.40;99.90;;;;;;5030104;28;20241;-74
2021/10/26 07:19:14;;;;;;;7.03;6.43;;;9.40;99.90;;;;;;5029828;28;20248;-74
2021/10/26 07:21:42;;;;;;;7.60;7.00;;;9.40;99.90;;;;;;5029965;28;20214;-74
2021/10/26 07:24:10;;;;;;;8.03;7.37;;;9.40;99.90;;;;;;5029701;28;20205;-74
2021/10/26 07:26:36;;;;;;;7.67;6.87;;;9.40;99.90;;;;;;5029757;28;20205;-74
2021/10/26 07:29:03;;;;;;;8.23;6.60;;;9.50;99.90;;;;;;5029768;28;20214;-74
2021/10/26 07:31:31;;;;;;;7.97;7.23;;;9.50;99.90;;;;;;5029572;28;20353;-74
2021/10/26 07:33:59;;;;;;;9.33;7.33;;;9.60;99.90;;;;;;5029600;28;20315;-74
2021/10/26 07:36:30;;;;;;;8.37;7.30;;;9.60;99.90;;;;;;5029536;28;20224;-74
2021/10/26 07:39:01;;;;;;;8.80;7.87;;;9.60;99.90;;;;;;5029473;28;20197;-74
2021/10/26 07:41:28;;;;;;;8.67;7.90;;;9.60;99.90;;;;;;5029670;28;20247;-74
2021/10/26 07:43:55;;;;;;;9.47;8.43;;;9.60;99.90;;;;;;5029482;28;20209;-74
2021/10/26 07:46:22;;;;;;;9.40;8.33;;;9.70;99.90;;;;;;5029235;28;20235;-75
2021/10/26 07:48:49;;;;;;;11.33;8.67;;;9.70;99.90;;;;;;5029537;28;20231;-74
2021/10/26 07:51:16;;;;;;;11.73;8.87;;;9.80;99.90;;;;;;5029105;28;20237;-74
2021/10/26 07:53:42;;;;;;;10.10;9.17;;;9.90;99.90;;;;;;5029019;28;20205;-74
2021/10/26 07:56:10;;;;;;;10.10;9.00;;;9.90;99.90;;;;;;5029185;28;20240;-74
2021/10/26 07:58:40;;;;;;;10.87;9.13;;;10.00;99.90;;;;;;5029384;28;20247;-74
2021/10/26 08:01:07;;;;;;;10.33;9.33;;;10.10;99.90;;;;;;5028848;28;20295;-74
2021/10/26 08:03:34;;;;;;;13.37;9.33;;;10.00;99.90;;;;;;5029422;28;20212;-75
2021/10/26 08:06:01;;;;;;;10.47;9.17;;;10.10;99.90;;;;;;5029160;28;20423;-74
2021/10/26 08:08:28;;;;;;;10.83;9.20;;;10.10;99.90;;;;;;5028061;28;20692;-74
2021/10/26 08:10:55;;;;;;;13.53;10.33;;;10.10;99.90;;;;;;5028874;28;20236;-74
2021/10/26 08:13:23;;;;;;;13.70;10.43;;;10.10;99.90;;;;;;5028730;28;20229;-74
2021/10/26 08:15:52;;;;;;;15.77;10.33;;;10.20;99.90;;;;;;5028706;28;20291;-74
2021/10/26 08:18:19;;;;;;;13.83;10.03;;;10.20;99.90;;;;;;5028410;28;20209;-74
2021/10/26 08:20:48;;;;;;;12.00;10.73;;;10.20;99.90;;;;;;5028594;28;20675;-74
2021/10/26 08:23:14;;;;;;;12.77;10.30;;;10.20;99.90;;;;;;5028707;28;20217;-74
2021/10/26 08:25:44;;;;;;;11.90;10.67;;;10.30;99.90;;;;;;5028853;28;20204;-74
2021/10/26 08:28:14;;;;;;;15.70;10.60;;;10.30;99.90;;;;;;5028449;28;20666;-74
2021/10/26 08:30:47;;;;;;;14.13;11.67;;;10.30;99.90;;;;;;5028599;28;20308;-74
2021/10/26 08:33:23;;;;;;;14.97;11.90;;;10.30;99.90;;;;;;5028463;28;20271;-74
2021/10/26 08:35:50;;;;;;;13.77;12.37;;;10.40;99.90;;;;;;5028830;28;20200;-74
2021/10/26 08:38:18;;;;;;;15.10;12.40;;;10.40;99.90;;;;;;5028320;28;20666;-74
2021/10/26 08:40:47;;;;;;;16.10;12.73;;;10.50;99.90;;;;;;5028520;28;20219;-74
2021/10/26 08:43:16;;;;;;;13.93;12.03;;;10.50;99.90;;;;;;5028529;28;20208;-74
2021/10/26 08:45:48;;;;;;;15.30;11.93;;;10.50;99.90;;;;;;5028443;28;20207;-74
2021/10/26 08:48:20;;;;;;;14.87;12.87;;;10.60;99.90;;;;;;5028359;28;20201;-74
2021/10/26 08:50:48;;;;;;;14.53;12.00;;;10.60;99.90;;;;;;5028566;28;20324;-74
2021/10/26 08:53:14;;;;;;;17.93;13.20;;;10.60;99.90;;;;;;5028188;28;20266;-74
2021/10/26 08:55:41;;;;;;;17.40;12.90;;;10.70;99.90;;;;;;5028322;28;20211;-74
2021/10/26 08:58:09;;;;;;;15.07;12.97;;;10.70;99.90;;;;;;5028529;28;20208;-74
2021/10/26 09:00:36;;;;;;;15.13;12.63;;;10.70;99.90;;;;;;5028082;28;20282;-74
2021/10/26 09:03:18;;;;;;;14.73;12.50;;;10.70;99.90;;;;;;5028237;28;20208;-74
2021/10/26 09:05:46;;;;;;;15.63;12.23;;;10.80;99.90;;;;;;5028445;28;20208;-74
2021/10/26 09:08:13;;;;;;;12.83;11.50;;;10.90;99.90;;;;;;5027818;28;20682;-74
2021/10/26 09:10:41;;;;;;;13.03;11.40;;;11.00;99.90;;;;;;5028159;28;20233;-74
2021/10/26 09:18:45;;;;;;;12.33;10.80;;;11.10;99.90;;;;;;5028071;28;20196;-75
2021/10/26 09:21:26;;;;;;;12.90;10.77;;;11.20;99.90;;;;;;5031608;28;20205;-75
2021/10/26 09:23:55;;;;;;;12.63;10.50;;;11.20;99.90;;;;;;5032181;28;20212;-74
2021/10/26 09:26:23;;;;;;;12.47;10.27;;;11.20;99.90;;;;;;5032006;28;20208;-74
2021/10/26 09:28:52;;;;;;;12.33;10.80;;;11.20;99.90;;;;;;5032062;28;20287;-74
2021/10/26 09:31:25;;;;;;;11.10;10.00;;;11.30;99.90;;;;;;5031663;28;20224;-74
2021/10/26 09:34:01;;;;;;;11.27;10.03;;;11.30;99.90;;;;;;5031684;28;20247;-74
2021/10/26 09:36:30;;;;;;;11.23;9.47;;;11.40;99.90;;;;;;5032039;28;20200;-74
2021/10/26 09:39:10;;;;;;;13.00;10.43;;;11.40;99.90;;;;;;5031717;28;20204;-74
2021/10/26 09:41:40;;;;;;;12.03;9.40;;;11.50;99.90;;;;;;5031902;28;20562;-74
2021/10/26 09:44:11;;;;;;;13.87;9.50;;;11.60;99.90;;;;;;5031753;28;20215;-74
2021/10/26 09:46:40;;;;;;;11.00;9.83;;;11.60;99.90;;;;;;5031674;28;20232;-74
2021/10/26 09:49:22;;;;;;;10.87;8.97;;;11.70;99.90;;;;;;5031339;28;20407;-74
2021/10/26 09:51:50;;;;;;;12.70;11.10;;;11.80;99.90;;;;;;5031532;28;20307;-74
2021/10/26 09:54:18;;;;;;;11.00;9.40;;;11.90;99.90;;;;;;5031135;28;20725;-74
2021/10/26 09:57:03;;;;;;;11.20;9.70;;;12.00;99.90;;;;;;5031597;28;20208;-74
2021/10/26 09:59:30;;;;;;;9.50;8.60;;;12.10;99.90;;;;;;5031559;28;20551;-74
2021/10/26 10:01:57;;;;;;;10.77;8.83;;;12.10;99.90;;;;;;5031177;28;20232;-75
2021/10/26 10:04:30;;;;;;;10.47;8.53;;;12.20;99.90;;;;;;5031297;28;20255;-74
2021/10/26 10:06:56;;;;;;;10.37;8.80;;;12.20;99.90;;;;;;5031351;28;20641;-74
2021/10/26 10:09:24;;;;;;;9.43;8.47;;;12.20;99.90;;;;;;5031117;28;20423;-74
2021/10/26 10:12:05;;;;;;;13.90;10.33;;;12.20;99.90;;;;;;5031251;28;20240;-74
2021/10/26 10:14:34;;;;;;;11.00;8.33;;;12.30;99.90;;;;;;5030907;28;20240;-74
2021/10/26 10:17:03;;;;;;;9.70;8.70;;;12.20;99.90;;;;;;5031213;28;20209;-74
2021/10/26 10:19:33;;;;;;;11.67;9.03;;;12.30;99.90;;;;;;5030782;28;20597;-74
2021/10/26 10:22:01;;;;;;;11.40;8.77;;;12.30;99.90;;;;;;5030744;28;20713;-74
2021/10/26 10:24:29;;;;;;;10.33;8.50;;;12.30;99.90;;;;;;5031031;28;20237;-74
2021/10/26 10:26:57;;;;;;;10.13;8.63;;;12.30;99.90;;;;;;5031117;28;20208;-74
2021/10/26 10:29:24;;;;;;;8.80;8.00;;;12.20;99.90;;;;;;5030770;28;20209;-74
2021/10/26 10:31:51;;;;;;;9.10;8.30;;;12.20;99.90;;;;;;5029968;28;20224;-74
2021/10/26 10:34:19;;;;;;;10.43;8.40;;;12.30;99.90;;;;;;5030598;28;20224;-73
2021/10/26 10:36:52;;;;;;;9.70;8.30;;;12.30;99.90;;;;;;5030883;28;20220;-74
2021/10/26 10:39:23;;;;;;;8.63;7.37;;;12.30;99.90;;;;;;5030587;28;20201;-74
2021/10/26 10:41:51;;;;;;;10.97;8.60;;;12.40;99.90;;;;;;5031061;28;20223;-74
2021/10/26 10:44:38;;;;;;;9.67;8.67;;;12.50;99.90;;;;;;5030594;28;20209;-74
2021/10/26 10:47:05;;;;;;;9.53;8.57;;;12.50;99.90;;;;;;5030467;28;20215;-74
2021/10/26 10:49:45;;;;;;;12.57;10.20;;;12.50;99.90;;;;;;5030373;28;20240;-74
2021/10/26 10:52:18;;;;;;;12.17;10.67;;;12.60;99.90;;;;;;5030165;28;20311;-74
2021/10/26 10:54:49;;;;;;;11.50;10.30;;;12.60;99.90;;;;;;5030576;28;20193;-73
2021/10/26 10:57:20;;;;;;;15.20;11.73;;;12.60;99.90;;;;;;5030699;28;20193;-74
2021/10/26 10:59:48;;;;;;;11.00;9.90;;;12.70;99.90;;;;;;5030318;28;20189;-74
2021/10/26 11:02:25;;;;;;;9.80;8.80;;;12.70;99.90;;;;;;5029659;28;20244;-73
2021/10/26 11:04:54;;;;;;;11.43;9.53;;;12.70;99.90;;;;;;5030231;28;20201;-74
2021/10/26 11:07:51;;;;;;;14.60;9.43;;;12.70;99.90;;;;;;5030083;28;20209;-74
2021/10/26 11:10:19;;;;;;;9.93;8.70;;;12.70;99.90;;;;;;5030197;28;20256;-73
2021/10/26 11:12:46;;;;;;;10.80;9.70;;;12.80;99.90;;;;;;5030248;28;20212;-74
2021/10/26 11:15:16;;;;;;;11.30;9.67;;;12.70;99.90;;;;;;5029788;28;20229;-74
2021/10/26 11:17:56;;;;;;;12.87;10.13;;;12.80;99.90;;;;;;5030135;28;20203;-74
2021/10/26 11:20:42;;;;;;;13.10;10.37;;;12.80;99.90;;;;;;5030052;28;20569;-73
2021/10/26 11:23:28;;;;;;;13.43;10.67;;;12.90;99.90;;;;;;5029767;28;20263;-74
2021/10/26 11:26:00;;;;;;;11.83;10.23;;;13.00;99.90;;;;;;5030003;28;20704;-74
2021/10/26 11:28:50;;;;;;;12.97;11.00;;;13.00;99.90;;;;;;5029952;28;20201;-74
2021/10/26 11:31:23;;;;;;;14.47;9.93;;;13.00;99.90;;;;;;5029500;28;20260;-74
2021/10/26 11:34:06;;;;;;;13.73;10.90;;;13.20;99.90;;;;;;5029559;28;20279;-74
2021/10/26 11:36:36;;;;;;;12.57;10.83;;;13.30;99.90;;;;;;5029855;28;20259;-74
2021/10/26 11:39:08;;;;;;;13.30;10.60;;;13.30;99.90;;;;;;5029496;28;20208;-73
2021/10/26 11:41:36;;;;;;;11.10;9.73;;;13.30;99.90;;;;;;5029771;28;20201;-74
2021/10/26 11:44:05;;;;;;;11.67;9.90;;;13.40;99.90;;;;;;5028517;28;20244;-74
2021/10/26 11:46:33;;;;;;;12.30;10.27;;;13.50;99.90;;;;;;5029389;28;20569;-74
2021/10/26 11:49:04;;;;;;;11.40;9.57;;;13.50;99.90;;;;;;5029139;28;20287;-74
2021/10/26 11:51:34;;;;;;;11.57;9.97;;;13.50;99.90;;;;;;5029366;28;20224;-74
2021/10/26 11:54:03;;;;;;;13.37;10.20;;;13.50;99.90;;;;;;5029599;28;20258;-74
2021/10/26 11:56:34;;;;;;;12.40;10.47;;;13.50;99.90;;;;;;5029104;28;20741;-73
2021/10/26 11:59:07;;;;;;;11.53;10.33;;;13.50;99.90;;;;;;5029473;28;20617;-74
2021/10/26 12:01:49;;;;;;;11.27;10.07;;;13.40;99.90;;;;;;5028837;28;20236;-74
2021/10/26 12:04:28;;;;;;;11.00;8.83;;;13.30;99.90;;;;;;5029049;28;20224;-74
2021/10/26 12:06:58;;;;;;;13.90;9.97;;;13.30;99.90;;;;;;5029151;28;20225;-74
2021/10/26 12:09:27;;;;;;;12.63;9.67;;;13.20;99.90;;;;;;5028596;28;20829;-74
2021/10/26 12:11:59;;;;;;;14.27;9.80;;;13.30;99.90;;;;;;5028944;28;20259;-74
2021/10/26 12:14:28;;;;;;;12.03;10.33;;;13.20;99.90;;;;;;5028849;28;20235;-74
2021/10/26 12:17:11;;;;;;;14.80;9.87;;;13.30;99.90;;;;;;5028905;28;20310;-74
2021/10/26 12:19:40;;;;;;;12.97;8.77;;;13.20;99.90;;;;;;5028934;28;20189;-74
2021/10/26 12:22:11;;;;;;;11.47;9.17;;;13.20;99.90;;;;;;5028500;28;20213;-74
2021/10/26 12:24:44;;;;;;;12.03;9.83;;;13.30;99.90;;;;;;5029077;28;20197;-74
2021/10/26 12:27:12;;;;;;;13.50;9.37;;;13.30;99.90;;;;;;5028785;28;20197;-74
2021/10/26 12:29:41;;;;;;;11.17;9.93;;;13.30;99.90;;;;;;5028838;28;20212;-73
2021/10/26 12:32:09;;;;;;;11.00;9.50;;;13.30;99.90;;;;;;5028457;28;20248;-74
2021/10/26 12:34:36;;;;;;;12.50;9.37;;;13.30;99.90;;;;;;5028530;28;20255;-73
2021/10/26 12:37:21;;;;;;;13.47;10.07;;;13.30;99.90;;;;;;5028678;28;20647;-74
2021/10/26 12:39:51;;;;;;;10.13;9.00;;;13.40;99.90;;;;;;5028757;28;20209;-73
2021/10/26 12:42:36;;;;;;;10.23;9.13;;;13.40;99.90;;;;;;5028320;28;20201;-74
2021/10/26 12:45:06;;;;;;;10.93;9.03;;;13.40;99.90;;;;;;5028604;28;20219;-74
2021/10/26 12:47:59;;;;;;;12.90;9.23;;;13.50;99.90;;;;;;5028450;28;20267;-74
2021/10/26 12:50:45;;;;;;;13.00;8.90;;;13.50;99.90;;;;;;5028016;28;20763;-73
2021/10/26 12:53:28;;;;;;;10.60;9.50;;;13.60;99.90;;;;;;5028196;28;20220;-74
2021/10/26 12:55:56;;;;;;;12.23;9.60;;;13.60;99.90;;;;;;5027891;28;20232;-74
2021/10/26 12:58:39;;;;;;;12.60;9.27;;;13.80;99.90;;;;;;5028201;28;20203;-73
2021/10/26 13:01:16;;;;;;;13.97;11.90;;;13.70;99.90;;;;;;5027885;28;20710;-74
2021/10/26 13:04:08;;;;;;;10.17;9.03;;;13.70;99.90;;;;;;5028483;28;20577;-74